sensor_id;sensor_type;location;lat;lon;timestamp;P1;durP1;ratioP1;P2;durP2;ratioP2
44572;SDS011;31762;45.420;10.072;2023-12-14T00:01:50;24.90;;;22.27;;
44572;SDS011;31762;45.420;10.072;2023-12-14T00:06:52;22.75;;;19.58;;
44572;SDS011;31762;45.420;10.072;2023-12-14T00:11:54;23.65;;;20.60;;
44572;SDS011;31762;45.420;10.072;2023-12-14T00:16:56;27.08;;;21.45;;
44572;SDS011;31762;45.420;10.072;2023-12-14T00:21:58;25.35;;;20.77;;
44572;SDS011;31762;45.420;10.072;2023-12-14T00:27:00;25.63;;;22.42;;
44572;SDS011;31762;45.420;10.072;2023-12-14T00:32:03;23.55;;;20.83;;
44572;SDS011;31762;45.420;10.072;2023-12-14T00:37:05;25.67;;;22.33;;
44572;SDS011;31762;45.420;10.072;2023-12-14T00:42:07;26.35;;;22.58;;
44572;SDS011;31762;45.420;10.072;2023-12-14T00:47:09;25.30;;;22.35;;
44572;SDS011;31762;45.420;10.072;2023-12-14T00:52:12;26.08;;;21.67;;
44572;SDS011;31762;45.420;10.072;2023-12-14T00:57:14;25.92;;;21.20;;
44572;SDS011;31762;45.420;10.072;2023-12-14T01:02:16;25.30;;;21.45;;
44572;SDS011;31762;45.420;10.072;2023-12-14T01:07:18;26.33;;;22.35;;
44572;SDS011;31762;45.420;10.072;2023-12-14T01:12:21;25.98;;;23.27;;
44572;SDS011;31762;45.420;10.072;2023-12-14T01:17:23;25.70;;;22.98;;
44572;SDS011;31762;45.420;10.072;2023-12-14T01:22:25;24.63;;;21.00;;
44572;SDS011;31762;45.420;10.072;2023-12-14T01:27:27;27.27;;;23.20;;
44572;SDS011;31762;45.420;10.072;2023-12-14T01:32:29;26.95;;;22.42;;
44572;SDS011;31762;45.420;10.072;2023-12-14T01:37:32;24.75;;;22.08;;
44572;SDS011;31762;45.420;10.072;2023-12-14T01:42:34;24.98;;;20.02;;
44572;SDS011;31762;45.420;10.072;2023-12-14T01:47:37;29.23;;;23.95;;
44572;SDS011;31762;45.420;10.072;2023-12-14T01:52:39;28.23;;;23.92;;
44572;SDS011;31762;45.420;10.072;2023-12-14T01:57:41;30.92;;;26.13;;
44572;SDS011;31762;45.420;10.072;2023-12-14T02:02:43;28.83;;;23.88;;
44572;SDS011;31762;45.420;10.072;2023-12-14T02:07:46;32.53;;;26.35;;
44572;SDS011;31762;45.420;10.072;2023-12-14T02:12:48;29.05;;;22.50;;
44572;SDS011;31762;45.420;10.072;2023-12-14T02:17:50;32.25;;;25.27;;
44572;SDS011;31762;45.420;10.072;2023-12-14T02:22:53;30.98;;;26.13;;
44572;SDS011;31762;45.420;10.072;2023-12-14T02:27:55;34.53;;;27.13;;
44572;SDS011;31762;45.420;10.072;2023-12-14T02:32:58;32.28;;;25.65;;
44572;SDS011;31762;45.420;10.072;2023-12-14T02:38:00;32.20;;;25.88;;
44572;SDS011;31762;45.420;10.072;2023-12-14T02:43:02;30.02;;;26.85;;
44572;SDS011;31762;45.420;10.072;2023-12-14T02:48:04;31.73;;;26.17;;
44572;SDS011;31762;45.420;10.072;2023-12-14T02:53:07;31.42;;;26.23;;
44572;SDS011;31762;45.420;10.072;2023-12-14T02:58:09;34.60;;;27.95;;
44572;SDS011;31762;45.420;10.072;2023-12-14T03:03:11;31.27;;;26.55;;
44572;SDS011;31762;45.420;10.072;2023-12-14T03:08:13;30.60;;;25.23;;
44572;SDS011;31762;45.420;10.072;2023-12-14T03:13:16;33.42;;;26.13;;
44572;SDS011;31762;45.420;10.072;2023-12-14T03:18:18;30.75;;;27.27;;
44572;SDS011;31762;45.420;10.072;2023-12-14T03:23:20;32.63;;;27.15;;
44572;SDS011;31762;45.420;10.072;2023-12-14T03:28:22;32.40;;;28.80;;
44572;SDS011;31762;45.420;10.072;2023-12-14T03:33:24;33.50;;;25.23;;
44572;SDS011;31762;45.420;10.072;2023-12-14T03:38:27;32.17;;;26.42;;
44572;SDS011;31762;45.420;10.072;2023-12-14T03:43:29;31.75;;;26.30;;
44572;SDS011;31762;45.420;10.072;2023-12-14T03:48:32;33.33;;;26.90;;
44572;SDS011;31762;45.420;10.072;2023-12-14T03:53:34;33.92;;;26.63;;
44572;SDS011;31762;45.420;10.072;2023-12-14T03:58:36;32.60;;;26.25;;
44572;SDS011;31762;45.420;10.072;2023-12-14T04:03:39;33.35;;;27.75;;
44572;SDS011;31762;45.420;10.072;2023-12-14T04:08:41;31.85;;;25.88;;
44572;SDS011;31762;45.420;10.072;2023-12-14T04:13:43;30.13;;;25.15;;
44572;SDS011;31762;45.420;10.072;2023-12-14T04:18:46;29.17;;;25.45;;
44572;SDS011;31762;45.420;10.072;2023-12-14T04:23:48;28.20;;;24.85;;
44572;SDS011;31762;45.420;10.072;2023-12-14T04:28:50;30.45;;;24.65;;
44572;SDS011;31762;45.420;10.072;2023-12-14T04:33:52;29.75;;;24.83;;
44572;SDS011;31762;45.420;10.072;2023-12-14T04:38:54;29.30;;;24.13;;
44572;SDS011;31762;45.420;10.072;2023-12-14T04:43:57;28.98;;;23.23;;
44572;SDS011;31762;45.420;10.072;2023-12-14T04:48:59;29.38;;;24.58;;
44572;SDS011;31762;45.420;10.072;2023-12-14T04:54:01;26.90;;;22.38;;
44572;SDS011;31762;45.420;10.072;2023-12-14T04:59:03;26.38;;;23.20;;
44572;SDS011;31762;45.420;10.072;2023-12-14T05:04:05;28.15;;;23.80;;
44572;SDS011;31762;45.420;10.072;2023-12-14T05:09:08;28.35;;;23.35;;
44572;SDS011;31762;45.420;10.072;2023-12-14T05:14:10;28.58;;;24.52;;
44572;SDS011;31762;45.420;10.072;2023-12-14T05:19:12;30.40;;;26.35;;
44572;SDS011;31762;45.420;10.072;2023-12-14T05:24:15;25.42;;;22.38;;
44572;SDS011;31762;45.420;10.072;2023-12-14T05:29:17;27.75;;;24.00;;
44572;SDS011;31762;45.420;10.072;2023-12-14T05:34:19;25.40;;;21.50;;
44572;SDS011;31762;45.420;10.072;2023-12-14T05:39:21;25.63;;;22.63;;
44572;SDS011;31762;45.420;10.072;2023-12-14T05:44:24;25.08;;;21.50;;
44572;SDS011;31762;45.420;10.072;2023-12-14T05:49:26;28.80;;;22.38;;
44572;SDS011;31762;45.420;10.072;2023-12-14T05:54:28;22.83;;;20.35;;
44572;SDS011;31762;45.420;10.072;2023-12-14T05:59:30;23.13;;;20.67;;
44572;SDS011;31762;45.420;10.072;2023-12-14T06:04:33;22.92;;;20.38;;
44572;SDS011;31762;45.420;10.072;2023-12-14T06:09:35;21.65;;;19.30;;
44572;SDS011;31762;45.420;10.072;2023-12-14T06:14:37;25.15;;;21.30;;
44572;SDS011;31762;45.420;10.072;2023-12-14T06:19:39;23.63;;;21.08;;
44572;SDS011;31762;45.420;10.072;2023-12-14T06:24:42;25.00;;;21.17;;
44572;SDS011;31762;45.420;10.072;2023-12-14T06:29:44;26.30;;;23.25;;
44572;SDS011;31762;45.420;10.072;2023-12-14T06:34:46;26.50;;;23.10;;
44572;SDS011;31762;45.420;10.072;2023-12-14T06:39:49;28.77;;;23.90;;
44572;SDS011;31762;45.420;10.072;2023-12-14T06:44:51;26.80;;;23.10;;
44572;SDS011;31762;45.420;10.072;2023-12-14T06:49:53;25.50;;;22.17;;
44572;SDS011;31762;45.420;10.072;2023-12-14T06:54:55;28.08;;;24.17;;
44572;SDS011;31762;45.420;10.072;2023-12-14T06:59:57;27.67;;;24.20;;
44572;SDS011;31762;45.420;10.072;2023-12-14T07:05:00;27.08;;;22.52;;
44572;SDS011;31762;45.420;10.072;2023-12-14T07:10:02;28.38;;;22.75;;
44572;SDS011;31762;45.420;10.072;2023-12-14T07:15:05;26.52;;;22.65;;
44572;SDS011;31762;45.420;10.072;2023-12-14T07:20:07;27.35;;;24.45;;
44572;SDS011;31762;45.420;10.072;2023-12-14T07:25:09;24.95;;;22.25;;
44572;SDS011;31762;45.420;10.072;2023-12-14T07:30:12;29.55;;;24.23;;
44572;SDS011;31762;45.420;10.072;2023-12-14T07:35:14;25.58;;;22.08;;
44572;SDS011;31762;45.420;10.072;2023-12-14T07:40:16;26.67;;;23.25;;
44572;SDS011;31762;45.420;10.072;2023-12-14T07:45:19;26.33;;;23.65;;
44572;SDS011;31762;45.420;10.072;2023-12-14T07:50:21;27.13;;;24.23;;
44572;SDS011;31762;45.420;10.072;2023-12-14T07:55:25;25.55;;;22.80;;
44572;SDS011;31762;45.420;10.072;2023-12-14T08:00:27;26.02;;;23.23;;
44572;SDS011;31762;45.420;10.072;2023-12-14T08:05:29;27.08;;;24.05;;
44572;SDS011;31762;45.420;10.072;2023-12-14T08:10:32;26.10;;;23.30;;
44572;SDS011;31762;45.420;10.072;2023-12-14T08:15:34;28.73;;;23.92;;
44572;SDS011;31762;45.420;10.072;2023-12-14T08:20:36;30.13;;;25.60;;
44572;SDS011;31762;45.420;10.072;2023-12-14T08:25:38;33.03;;;26.67;;
44572;SDS011;31762;45.420;10.072;2023-12-14T08:30:41;28.45;;;25.45;;
44572;SDS011;31762;45.420;10.072;2023-12-14T08:35:43;29.90;;;25.35;;
44572;SDS011;31762;45.420;10.072;2023-12-14T08:40:45;29.48;;;26.05;;
44572;SDS011;31762;45.420;10.072;2023-12-14T08:45:47;29.92;;;26.25;;
44572;SDS011;31762;45.420;10.072;2023-12-14T08:50:49;32.05;;;26.80;;
44572;SDS011;31762;45.420;10.072;2023-12-14T08:55:51;30.80;;;27.05;;
44572;SDS011;31762;45.420;10.072;2023-12-14T09:00:54;30.80;;;26.30;;
44572;SDS011;31762;45.420;10.072;2023-12-14T09:05:56;32.22;;;28.45;;
44572;SDS011;31762;45.420;10.072;2023-12-14T09:10:58;30.92;;;27.65;;
44572;SDS011;31762;45.420;10.072;2023-12-14T09:16:00;28.83;;;24.35;;
44572;SDS011;31762;45.420;10.072;2023-12-14T09:21:03;30.23;;;25.23;;
44572;SDS011;31762;45.420;10.072;2023-12-14T09:26:05;30.33;;;27.23;;
44572;SDS011;31762;45.420;10.072;2023-12-14T09:31:07;30.38;;;27.30;;
44572;SDS011;31762;45.420;10.072;2023-12-14T09:36:09;30.65;;;27.45;;
44572;SDS011;31762;45.420;10.072;2023-12-14T09:41:12;30.60;;;27.35;;
44572;SDS011;31762;45.420;10.072;2023-12-14T09:46:14;30.67;;;27.42;;
44572;SDS011;31762;45.420;10.072;2023-12-14T09:51:17;31.17;;;24.88;;
44572;SDS011;31762;45.420;10.072;2023-12-14T09:56:20;26.45;;;22.92;;
44572;SDS011;31762;45.420;10.072;2023-12-14T10:01:22;30.38;;;24.42;;
44572;SDS011;31762;45.420;10.072;2023-12-14T10:06:25;29.20;;;26.10;;
44572;SDS011;31762;45.420;10.072;2023-12-14T10:11:27;26.63;;;23.80;;
44572;SDS011;31762;45.420;10.072;2023-12-14T10:16:30;28.60;;;25.27;;
44572;SDS011;31762;45.420;10.072;2023-12-14T10:21:32;29.48;;;24.25;;
44572;SDS011;31762;45.420;10.072;2023-12-14T10:26:35;30.38;;;24.25;;
44572;SDS011;31762;45.420;10.072;2023-12-14T10:31:37;26.85;;;22.75;;
44572;SDS011;31762;45.420;10.072;2023-12-14T10:36:39;27.38;;;23.65;;
44572;SDS011;31762;45.420;10.072;2023-12-14T10:41:44;29.02;;;24.83;;
44572;SDS011;31762;45.420;10.072;2023-12-14T10:46:55;29.48;;;24.80;;
44572;SDS011;31762;45.420;10.072;2023-12-14T10:51:57;30.40;;;26.48;;
44572;SDS011;31762;45.420;10.072;2023-12-14T10:57:00;28.33;;;25.27;;
44572;SDS011;31762;45.420;10.072;2023-12-14T11:02:09;29.60;;;24.95;;
44572;SDS011;31762;45.420;10.072;2023-12-14T11:07:12;30.45;;;25.77;;
44572;SDS011;31762;45.420;10.072;2023-12-14T11:12:14;27.92;;;24.88;;
44572;SDS011;31762;45.420;10.072;2023-12-14T11:17:16;29.70;;;25.40;;
44572;SDS011;31762;45.420;10.072;2023-12-14T11:22:25;26.35;;;23.58;;
44572;SDS011;31762;45.420;10.072;2023-12-14T11:27:28;26.67;;;22.75;;
44572;SDS011;31762;45.420;10.072;2023-12-14T11:32:31;27.98;;;25.08;;
44572;SDS011;31762;45.420;10.072;2023-12-14T11:37:33;27.48;;;23.42;;
44572;SDS011;31762;45.420;10.072;2023-12-14T11:42:36;28.20;;;24.77;;
44572;SDS011;31762;45.420;10.072;2023-12-14T11:47:38;29.27;;;24.77;;
44572;SDS011;31762;45.420;10.072;2023-12-14T11:52:41;31.58;;;26.02;;
44572;SDS011;31762;45.420;10.072;2023-12-14T11:57:47;26.33;;;22.70;;
44572;SDS011;31762;45.420;10.072;2023-12-14T12:02:49;25.85;;;22.00;;
44572;SDS011;31762;45.420;10.072;2023-12-14T12:07:56;27.85;;;23.25;;
44572;SDS011;31762;45.420;10.072;2023-12-14T12:13:00;25.45;;;22.48;;
44572;SDS011;31762;45.420;10.072;2023-12-14T12:18:06;23.73;;;21.07;;
44572;SDS011;31762;45.420;10.072;2023-12-14T12:23:10;29.35;;;25.15;;
44572;SDS011;31762;45.420;10.072;2023-12-14T12:28:12;27.30;;;21.95;;
44572;SDS011;31762;45.420;10.072;2023-12-14T12:33:14;25.58;;;22.92;;
44572;SDS011;31762;45.420;10.072;2023-12-14T12:38:17;24.42;;;21.45;;
44572;SDS011;31762;45.420;10.072;2023-12-14T12:43:19;25.98;;;23.13;;
44572;SDS011;31762;45.420;10.072;2023-12-14T12:48:21;28.58;;;24.90;;
44572;SDS011;31762;45.420;10.072;2023-12-14T12:53:28;24.98;;;22.33;;
44572;SDS011;31762;45.420;10.072;2023-12-14T12:58:30;24.60;;;21.30;;
44572;SDS011;31762;45.420;10.072;2023-12-14T13:03:32;26.30;;;23.02;;
44572;SDS011;31762;45.420;10.072;2023-12-14T13:08:35;27.52;;;21.65;;
44572;SDS011;31762;45.420;10.072;2023-12-14T13:13:37;26.00;;;23.05;;
44572;SDS011;31762;45.420;10.072;2023-12-14T13:18:39;27.85;;;24.85;;
44572;SDS011;31762;45.420;10.072;2023-12-14T13:23:41;27.88;;;25.05;;
44572;SDS011;31762;45.420;10.072;2023-12-14T13:28:44;26.20;;;23.15;;
44572;SDS011;31762;45.420;10.072;2023-12-14T13:33:46;27.83;;;24.90;;
44572;SDS011;31762;45.420;10.072;2023-12-14T13:38:49;27.45;;;24.45;;
44572;SDS011;31762;45.420;10.072;2023-12-14T13:43:51;26.15;;;23.35;;
44572;SDS011;31762;45.420;10.072;2023-12-14T13:48:53;27.88;;;25.15;;
44572;SDS011;31762;45.420;10.072;2023-12-14T13:53:55;28.80;;;24.17;;
44572;SDS011;31762;45.420;10.072;2023-12-14T13:58:58;30.38;;;23.85;;
44572;SDS011;31762;45.420;10.072;2023-12-14T14:04:00;29.05;;;25.95;;
44572;SDS011;31762;45.420;10.072;2023-12-14T14:09:02;27.38;;;24.55;;
44572;SDS011;31762;45.420;10.072;2023-12-14T14:14:04;27.58;;;24.67;;
44572;SDS011;31762;45.420;10.072;2023-12-14T14:19:06;27.52;;;24.55;;
44572;SDS011;31762;45.420;10.072;2023-12-14T14:24:09;28.50;;;24.50;;
44572;SDS011;31762;45.420;10.072;2023-12-14T14:29:11;29.10;;;25.95;;
44572;SDS011;31762;45.420;10.072;2023-12-14T14:34:13;29.00;;;25.95;;
44572;SDS011;31762;45.420;10.072;2023-12-14T14:39:15;34.10;;;26.48;;
44572;SDS011;31762;45.420;10.072;2023-12-14T14:44:18;28.20;;;25.17;;
44572;SDS011;31762;45.420;10.072;2023-12-14T14:49:20;30.08;;;27.10;;
44572;SDS011;31762;45.420;10.072;2023-12-14T14:54:22;30.30;;;27.10;;
44572;SDS011;31762;45.420;10.072;2023-12-14T14:59:24;28.80;;;25.60;;
44572;SDS011;31762;45.420;10.072;2023-12-14T15:04:26;29.65;;;26.42;;
44572;SDS011;31762;45.420;10.072;2023-12-14T15:09:29;31.95;;;27.27;;
44572;SDS011;31762;45.420;10.072;2023-12-14T15:14:31;29.00;;;25.95;;
44572;SDS011;31762;45.420;10.072;2023-12-14T15:19:33;32.88;;;27.15;;
44572;SDS011;31762;45.420;10.072;2023-12-14T15:24:35;28.20;;;25.30;;
44572;SDS011;31762;45.420;10.072;2023-12-14T15:29:38;32.75;;;29.10;;
44572;SDS011;31762;45.420;10.072;2023-12-14T15:34:40;32.05;;;27.00;;
44572;SDS011;31762;45.420;10.072;2023-12-14T15:39:42;32.10;;;28.92;;
44572;SDS011;31762;45.420;10.072;2023-12-14T15:44:44;30.52;;;26.65;;
44572;SDS011;31762;45.420;10.072;2023-12-14T15:49:47;31.08;;;26.15;;
44572;SDS011;31762;45.420;10.072;2023-12-14T15:54:49;29.15;;;25.20;;
44572;SDS011;31762;45.420;10.072;2023-12-14T15:59:51;30.98;;;27.65;;
44572;SDS011;31762;45.420;10.072;2023-12-14T16:04:53;30.42;;;27.23;;
44572;SDS011;31762;45.420;10.072;2023-12-14T16:09:55;32.25;;;26.77;;
44572;SDS011;31762;45.420;10.072;2023-12-14T16:14:58;30.00;;;26.85;;
44572;SDS011;31762;45.420;10.072;2023-12-14T16:20:00;29.70;;;26.40;;
44572;SDS011;31762;45.420;10.072;2023-12-14T16:25:03;29.00;;;25.23;;
44572;SDS011;31762;45.420;10.072;2023-12-14T16:30:05;30.10;;;25.95;;
44572;SDS011;31762;45.420;10.072;2023-12-14T16:35:07;30.77;;;26.60;;
44572;SDS011;31762;45.420;10.072;2023-12-14T16:40:10;31.08;;;27.77;;
44572;SDS011;31762;45.420;10.072;2023-12-14T16:45:12;31.77;;;28.13;;
44572;SDS011;31762;45.420;10.072;2023-12-14T16:50:14;28.88;;;25.13;;
44572;SDS011;31762;45.420;10.072;2023-12-14T16:55:17;29.70;;;26.50;;
44572;SDS011;31762;45.420;10.072;2023-12-14T17:00:19;29.90;;;26.15;;
44572;SDS011;31762;45.420;10.072;2023-12-14T17:05:21;32.63;;;27.77;;
44572;SDS011;31762;45.420;10.072;2023-12-14T17:10:23;30.30;;;27.20;;
44572;SDS011;31762;45.420;10.072;2023-12-14T17:15:25;29.85;;;26.85;;
44572;SDS011;31762;45.420;10.072;2023-12-14T17:20:27;29.75;;;26.52;;
44572;SDS011;31762;45.420;10.072;2023-12-14T17:25:30;34.00;;;27.38;;
44572;SDS011;31762;45.420;10.072;2023-12-14T17:30:32;28.95;;;25.90;;
44572;SDS011;31762;45.420;10.072;2023-12-14T17:35:35;32.78;;;27.40;;
44572;SDS011;31762;45.420;10.072;2023-12-14T17:40:37;28.38;;;24.92;;
44572;SDS011;31762;45.420;10.072;2023-12-14T17:45:40;28.85;;;25.48;;
44572;SDS011;31762;45.420;10.072;2023-12-14T17:50:42;29.27;;;26.30;;
44572;SDS011;31762;45.420;10.072;2023-12-14T17:55:44;26.48;;;23.77;;
44572;SDS011;31762;45.420;10.072;2023-12-14T18:00:47;27.75;;;24.05;;
44572;SDS011;31762;45.420;10.072;2023-12-14T18:05:49;29.25;;;26.08;;
44572;SDS011;31762;45.420;10.072;2023-12-14T18:10:51;27.80;;;24.90;;
44572;SDS011;31762;45.420;10.072;2023-12-14T18:15:53;32.20;;;26.00;;
44572;SDS011;31762;45.420;10.072;2023-12-14T18:20:56;29.45;;;25.63;;
44572;SDS011;31762;45.420;10.072;2023-12-14T18:25:58;28.50;;;25.52;;
44572;SDS011;31762;45.420;10.072;2023-12-14T18:31:00;26.20;;;23.50;;
44572;SDS011;31762;45.420;10.072;2023-12-14T18:36:03;29.42;;;25.08;;
44572;SDS011;31762;45.420;10.072;2023-12-14T18:41:05;28.50;;;25.55;;
44572;SDS011;31762;45.420;10.072;2023-12-14T18:46:08;28.60;;;25.50;;
44572;SDS011;31762;45.420;10.072;2023-12-14T18:51:10;29.55;;;25.92;;
44572;SDS011;31762;45.420;10.072;2023-12-14T18:56:12;30.33;;;27.08;;
44572;SDS011;31762;45.420;10.072;2023-12-14T19:01:15;29.58;;;26.38;;
44572;SDS011;31762;45.420;10.072;2023-12-14T19:06:17;30.42;;;25.92;;
44572;SDS011;31762;45.420;10.072;2023-12-14T19:11:19;30.33;;;27.02;;
44572;SDS011;31762;45.420;10.072;2023-12-14T19:16:22;29.15;;;26.05;;
44572;SDS011;31762;45.420;10.072;2023-12-14T19:21:25;26.50;;;23.77;;
44572;SDS011;31762;45.420;10.072;2023-12-14T19:26:27;28.15;;;25.15;;
44572;SDS011;31762;45.420;10.072;2023-12-14T19:31:30;30.65;;;25.90;;
44572;SDS011;31762;45.420;10.072;2023-12-14T19:36:32;33.58;;;25.38;;
44572;SDS011;31762;45.420;10.072;2023-12-14T19:41:35;27.92;;;24.92;;
44572;SDS011;31762;45.420;10.072;2023-12-14T19:46:39;27.75;;;24.25;;
44572;SDS011;31762;45.420;10.072;2023-12-14T19:51:41;28.40;;;25.50;;
44572;SDS011;31762;45.420;10.072;2023-12-14T19:56:44;29.40;;;26.23;;
44572;SDS011;31762;45.420;10.072;2023-12-14T20:01:47;30.75;;;27.60;;
44572;SDS011;31762;45.420;10.072;2023-12-14T20:06:49;29.20;;;26.08;;
44572;SDS011;31762;45.420;10.072;2023-12-14T20:11:55;31.05;;;27.98;;
44572;SDS011;31762;45.420;10.072;2023-12-14T20:17:03;28.92;;;25.83;;
44572;SDS011;31762;45.420;10.072;2023-12-14T20:22:10;28.40;;;25.40;;
44572;SDS011;31762;45.420;10.072;2023-12-14T20:27:12;30.17;;;26.83;;
44572;SDS011;31762;45.420;10.072;2023-12-14T20:32:20;28.90;;;25.98;;
44572;SDS011;31762;45.420;10.072;2023-12-14T20:37:22;30.67;;;27.38;;
44572;SDS011;31762;45.420;10.072;2023-12-14T20:42:28;27.83;;;24.92;;
44572;SDS011;31762;45.420;10.072;2023-12-14T20:47:31;29.85;;;26.77;;
44572;SDS011;31762;45.420;10.072;2023-12-14T20:52:34;33.25;;;29.50;;
44572;SDS011;31762;45.420;10.072;2023-12-14T20:57:40;28.02;;;25.00;;
44572;SDS011;31762;45.420;10.072;2023-12-14T21:02:43;30.02;;;26.90;;
44572;SDS011;31762;45.420;10.072;2023-12-14T21:07:45;25.05;;;22.40;;
44572;SDS011;31762;45.420;10.072;2023-12-14T21:12:47;30.25;;;25.77;;
44572;SDS011;31762;45.420;10.072;2023-12-14T21:17:50;28.92;;;25.02;;
44572;SDS011;31762;45.420;10.072;2023-12-14T21:22:52;28.92;;;25.92;;
44572;SDS011;31762;45.420;10.072;2023-12-14T21:27:54;28.52;;;25.55;;
44572;SDS011;31762;45.420;10.072;2023-12-14T21:32:56;26.73;;;23.70;;
44572;SDS011;31762;45.420;10.072;2023-12-14T21:37:59;28.40;;;25.10;;
44572;SDS011;31762;45.420;10.072;2023-12-14T21:43:01;26.55;;;23.80;;
44572;SDS011;31762;45.420;10.072;2023-12-14T21:48:03;26.75;;;24.02;;
44572;SDS011;31762;45.420;10.072;2023-12-14T21:53:06;27.27;;;24.48;;
44572;SDS011;31762;45.420;10.072;2023-12-14T21:58:08;28.15;;;24.98;;
44572;SDS011;31762;45.420;10.072;2023-12-14T22:03:10;29.92;;;26.90;;
44572;SDS011;31762;45.420;10.072;2023-12-14T22:08:12;28.52;;;25.50;;
44572;SDS011;31762;45.420;10.072;2023-12-14T22:13:14;30.77;;;27.52;;
44572;SDS011;31762;45.420;10.072;2023-12-14T22:18:17;28.20;;;25.10;;
44572;SDS011;31762;45.420;10.072;2023-12-14T22:23:19;26.05;;;23.25;;
44572;SDS011;31762;45.420;10.072;2023-12-14T22:28:21;27.73;;;24.83;;
44572;SDS011;31762;45.420;10.072;2023-12-14T22:33:23;27.40;;;24.58;;
44572;SDS011;31762;45.420;10.072;2023-12-14T22:38:26;28.63;;;25.58;;
44572;SDS011;31762;45.420;10.072;2023-12-14T22:43:28;28.52;;;25.02;;
44572;SDS011;31762;45.420;10.072;2023-12-14T22:48:30;27.17;;;23.05;;
44572;SDS011;31762;45.420;10.072;2023-12-14T22:53:32;26.90;;;24.25;;
44572;SDS011;31762;45.420;10.072;2023-12-14T22:58:35;26.40;;;23.80;;
44572;SDS011;31762;45.420;10.072;2023-12-14T23:03:37;25.77;;;23.13;;
44572;SDS011;31762;45.420;10.072;2023-12-14T23:08:39;25.40;;;22.60;;
44572;SDS011;31762;45.420;10.072;2023-12-14T23:13:41;23.75;;;21.25;;
44572;SDS011;31762;45.420;10.072;2023-12-14T23:18:44;26.95;;;24.38;;
44572;SDS011;31762;45.420;10.072;2023-12-14T23:23:46;26.08;;;23.35;;
44572;SDS011;31762;45.420;10.072;2023-12-14T23:28:48;23.42;;;21.08;;
44572;SDS011;31762;45.420;10.072;2023-12-14T23:33:50;24.45;;;21.95;;
44572;SDS011;31762;45.420;10.072;2023-12-14T23:38:53;24.40;;;22.05;;
44572;SDS011;31762;45.420;10.072;2023-12-14T23:43:55;22.10;;;19.88;;
44572;SDS011;31762;45.420;10.072;2023-12-14T23:48:57;22.45;;;20.17;;
44572;SDS011;31762;45.420;10.072;2023-12-14T23:53:59;22.60;;;20.23;;
44572;SDS011;31762;45.420;10.072;2023-12-14T23:59:02;23.27;;;20.83;;
